createdAt,value
2022-11-01T00:01:44.169Z,98800.09
2022-11-01T00:04:29.379Z,98799.28
2022-11-01T00:07:14.749Z,98796.94
2022-11-01T00:09:59.943Z,98796.16
2022-11-01T00:12:45.990Z,98793.38
2022-11-01T00:15:31.601Z,98785.50
2022-11-01T00:18:16.855Z,98789.03
2022-11-01T00:21:02.089Z,98797.38
2022-11-01T00:23:47.790Z,98800.56
2022-11-01T00:26:33.107Z,98795.00
2022-11-01T00:29:18.426Z,98794.25
2022-11-01T00:32:03.682Z,98794.66
2022-11-01T00:34:49.025Z,98792.69
2022-11-01T00:37:34.230Z,98795.47
2022-11-01T00:40:19.623Z,98784.78
2022-11-01T00:43:04.919Z,98790.34
2022-11-01T00:45:50.379Z,98790.34
2022-11-01T00:48:35.959Z,98784.00
2022-11-01T00:51:21.199Z,98777.69
2022-11-01T00:54:06.553Z,98775.69
2022-11-01T00:56:51.774Z,98774.91
2022-11-01T00:59:40.914Z,98770.56
2022-11-01T01:02:26.586Z,98781.66
2022-11-01T01:05:12.071Z,98770.56
2022-11-01T01:07:57.908Z,98764.22
2022-11-01T01:10:43.551Z,98755.91
2022-11-01T01:13:28.661Z,98756.69
2022-11-01T01:16:13.960Z,98757.09
2022-11-01T01:18:59.203Z,98755.56
2022-11-01T01:21:44.351Z,98755.56
2022-11-01T01:24:29.687Z,98753.56
2022-11-01T01:27:16.422Z,98752.78
2022-11-01T01:30:01.560Z,98754.78
2022-11-01T01:32:46.896Z,98754.78
2022-11-01T01:35:32.456Z,98750.00
2022-11-01T01:38:17.741Z,98735.78
2022-11-01T01:41:22.031Z,98742.88
2022-11-01T01:44:44.496Z,98737.34
2022-11-01T01:47:33.761Z,98729.47
2022-11-01T01:50:27.865Z,98729.88
2022-11-01T01:53:19.337Z,98733.44
2022-11-01T01:56:10.279Z,98727.88
2022-11-01T01:59:18.358Z,98732.66
2022-11-01T02:02:04.194Z,98727.88
2022-11-01T02:04:58.326Z,98740.97
2022-11-01T02:07:44.823Z,98737.44
2022-11-01T02:10:31.255Z,98741.41
2022-11-01T02:13:16.619Z,98733.88
2022-11-01T02:16:46.317Z,98736.66
2022-11-01T02:19:40.491Z,98735.06
2022-11-01T02:26:00.265Z,98726.75
2022-11-01T02:29:05.953Z,98718.44
2022-11-01T02:32:17.000Z,98710.09
2022-11-01T02:35:33.238Z,98712.88
2022-11-01T02:38:34.693Z,98711.34
2022-11-01T02:41:55.589Z,98712.09
2022-11-01T02:44:49.162Z,98709.75
2022-11-01T02:47:35.222Z,98711.34
2022-11-01T02:50:21.066Z,98710.53
2022-11-01T02:53:07.313Z,98712.53
2022-11-01T02:55:53.431Z,98713.31
2022-11-01T02:58:39.356Z,98720.84
2022-11-01T03:01:28.527Z,98715.31
2022-11-01T03:04:13.916Z,98710.53
2022-11-01T03:07:04.803Z,98709.75
2022-11-01T03:09:50.252Z,98702.66
2022-11-01T03:12:44.455Z,98708.22
2022-11-01T03:15:34.101Z,98707.44
2022-11-01T03:18:31.624Z,98705.44
2022-11-01T03:21:23.513Z,98703.84
2022-11-01T03:24:24.837Z,98708.22
2022-11-01T03:27:25.701Z,98705.06
2022-11-01T03:30:14.232Z,98705.06
2022-11-01T03:33:00.395Z,98707.84
2022-11-01T03:35:50.353Z,98711.81
2022-11-01T03:38:41.465Z,98722.91
2022-11-01T03:41:29.175Z,98727.25
2022-11-01T03:44:14.473Z,98730.47
2022-11-01T03:46:59.786Z,98736.00
2022-11-01T03:49:45.114Z,98743.53
2022-11-01T03:52:30.310Z,98745.09
2022-11-01T03:55:20.385Z,98756.63
2022-11-01T03:58:07.544Z,98759.41
2022-11-01T04:00:55.816Z,98744.78
2022-11-01T04:03:41.952Z,98754.63
2022-11-01T04:06:27.447Z,98757.41
2022-11-01T04:09:12.899Z,98761.75
2022-11-01T04:11:58.137Z,98769.28
2022-11-01T04:15:06.620Z,98771.28
2022-11-01T04:18:30.138Z,98761.41
2022-11-01T04:21:18.046Z,98764.97
2022-11-01T04:24:03.800Z,98760.59
2022-11-01T04:26:49.323Z,98766.25
2022-11-01T04:29:34.596Z,98753.56
2022-11-01T04:32:20.027Z,98764.66
2022-11-01T04:35:08.605Z,98762.34
2022-11-01T04:37:59.047Z,98763.13
2022-11-01T04:40:44.642Z,98763.13
2022-11-01T04:43:30.092Z,98761.53
2022-11-01T04:46:16.257Z,98750.44
2022-11-01T04:49:01.629Z,98755.97
2022-11-01T04:51:46.743Z,98758.75
2022-11-01T04:54:33.646Z,98754.44
2022-11-01T04:57:25.230Z,98753.22
2022-11-01T05:00:12.405Z,98753.22
2022-11-01T05:03:02.967Z,98753.56
2022-11-01T05:05:48.433Z,98750.44
2022-11-01T05:08:33.874Z,98750.78
2022-11-01T05:11:21.805Z,98746.03
2022-11-01T05:14:07.532Z,98740.94
2022-11-01T05:16:55.870Z,98745.75
2022-11-01T05:19:41.285Z,98744.19
2022-11-01T05:22:26.707Z,98739.44
2022-11-01T05:25:11.937Z,98738.56
2022-11-01T05:28:00.691Z,98744.91
2022-11-01T05:30:45.797Z,98738.88
2022-11-01T05:33:31.122Z,98741.13
2022-11-01T05:36:16.347Z,98740.72
2022-11-01T05:39:01.547Z,98739.91
2022-11-01T05:41:46.919Z,98731.22
2022-11-01T05:44:32.128Z,98728.97
2022-11-01T05:47:18.167Z,98742.41
2022-11-01T05:50:03.577Z,98738.41
2022-11-01T05:52:50.089Z,98743.97
2022-11-01T05:55:36.537Z,98748.31
2022-11-01T05:58:26.384Z,98744.84
2022-11-01T06:01:17.209Z,98749.25
2022-11-01T06:04:02.630Z,98747.25
2022-11-01T06:06:48.264Z,98741.75
2022-11-01T06:09:33.484Z,98747.75
2022-11-01T06:12:18.800Z,98746.63
2022-11-01T06:15:04.446Z,98750.59
2022-11-01T06:17:56.884Z,98761.69
2022-11-01T06:20:42.419Z,98768.88
2022-11-01T06:23:27.708Z,98768.09
2022-11-01T06:26:13.113Z,98770.88
2022-11-01T06:29:04.754Z,98771.28
2022-11-01T06:31:50.259Z,98780.00
2022-11-01T06:34:36.908Z,98772.13
2022-11-01T06:37:23.800Z,98789.53
2022-11-01T06:40:09.663Z,98791.19
2022-11-01T06:43:02.775Z,98782.44
2022-11-01T06:45:48.123Z,98774.09
2022-11-01T06:48:34.006Z,98793.50
2022-11-01T06:51:19.130Z,98804.59
2022-11-01T06:54:04.278Z,98804.59
2022-11-01T06:56:49.633Z,98807.38
2022-11-01T06:59:34.770Z,98813.72
2022-11-01T07:02:21.677Z,98818.47
2022-11-01T07:05:09.987Z,98819.28
2022-11-01T07:07:55.306Z,98822.81
2022-11-01T07:10:43.134Z,98822.03
2022-11-01T07:13:33.750Z,98822.03
2022-11-01T07:16:19.337Z,98826.78
2022-11-01T07:19:04.646Z,98824.00
2022-11-01T07:21:50.417Z,98822.47
2022-11-01T07:24:35.639Z,98821.69
2022-11-01T07:27:20.976Z,98833.53
2022-11-01T07:30:07.533Z,98837.88
2022-11-01T07:32:57.862Z,98843.41
2022-11-01T07:35:43.266Z,98852.94
2022-11-01T07:38:28.792Z,98841.88
2022-11-01T07:41:13.898Z,98850.19
2022-11-01T07:43:59.115Z,98849.81
2022-11-01T07:46:44.234Z,98851.41
2022-11-01T07:49:29.501Z,98852.19
2022-11-01T07:52:14.721Z,98848.63
2022-11-01T07:55:00.262Z,98851.41
2022-11-01T07:57:46.824Z,98845.84
2022-11-01T08:00:33.276Z,98856.94
2022-11-01T08:03:22.100Z,98855.38
2022-11-01T08:06:07.479Z,98851.81
2022-11-01T08:08:53.361Z,98842.72
2022-11-01T08:11:38.973Z,98850.22
2022-11-01T08:14:24.204Z,98850.22
2022-11-01T08:17:09.330Z,98852.22
2022-11-01T08:19:54.758Z,98851.44
2022-11-01T08:22:43.186Z,98857.78
2022-11-01T08:25:29.182Z,98857.78
2022-11-01T08:28:20.051Z,98856.22
2022-11-01T08:31:07.431Z,98856.22
2022-11-01T08:33:52.648Z,98871.28
2022-11-01T08:36:38.088Z,98881.16
2022-11-01T08:39:23.383Z,98886.72
2022-11-01T08:42:09.584Z,98893.44
2022-11-01T08:44:55.137Z,98897.44
2022-11-01T08:47:40.953Z,98896.22
2022-11-01T08:50:27.462Z,98902.22
2022-11-01T08:53:14.709Z,98901.41
2022-11-01T08:55:59.837Z,98901.41
2022-11-01T08:58:45.077Z,98903.75
2022-11-01T09:01:30.407Z,98912.06
2022-11-01T09:04:15.954Z,98902.97
2022-11-01T09:07:01.335Z,98908.53
2022-11-01T09:09:46.635Z,98908.53
2022-11-01T09:12:32.094Z,98908.53
2022-11-01T09:15:17.531Z,98908.53
2022-11-01T09:18:07.212Z,98907.75
2022-11-01T09:20:56.551Z,98909.72
2022-11-01T09:23:42.272Z,98899.44
2022-11-01T09:26:27.373Z,98911.72
2022-11-01T09:29:13.037Z,98904.16
2022-11-01T09:31:58.439Z,98917.25
2022-11-01T09:34:44.131Z,98908.16
2022-11-01T09:37:29.664Z,98920.03
2022-11-01T09:40:16.041Z,98912.13
2022-11-01T09:43:03.479Z,98916.47
2022-11-01T09:45:57.580Z,98919.25
2022-11-01T09:48:44.197Z,98916.47
2022-11-01T09:51:30.407Z,98922.03
2022-11-01T09:54:19.362Z,98935.09
2022-11-01T09:57:18.037Z,98931.97
2022-11-01T10:00:18.555Z,98924.44
2022-11-01T10:03:34.409Z,98933.97
2022-11-01T10:06:24.902Z,98929.97
2022-11-01T10:09:29.420Z,98924.44
2022-11-01T10:12:43.179Z,98930.38
2022-11-01T10:15:41.825Z,98939.50
2022-11-01T10:18:28.226Z,98956.13
2022-11-01T10:21:16.958Z,98953.69
2022-11-01T10:24:07.269Z,98964.00
2022-11-01T10:27:02.789Z,98964.44
2022-11-01T10:30:04.483Z,98967.22
2022-11-01T10:33:20.707Z,98963.25
2022-11-01T10:36:12.531Z,98964.44
2022-11-01T10:42:37.081Z,98963.66
2022-11-01T10:45:23.294Z,98960.09
2022-11-01T10:48:16.899Z,98954.91
2022-11-01T10:51:06.113Z,98961.69
2022-11-01T10:53:55.861Z,98956.13
2022-11-01T10:56:46.068Z,98952.94
2022-11-01T10:59:40.224Z,98950.59
2022-11-01T11:02:32.127Z,98953.38
2022-11-01T11:05:19.021Z,98956.13
2022-11-01T11:08:14.279Z,98942.28
2022-11-01T11:11:04.458Z,98932.38
2022-11-01T11:13:54.987Z,98935.94
2022-11-01T11:16:46.607Z,98950.59
2022-11-01T11:19:38.944Z,98944.25
2022-11-01T11:22:24.612Z,98941.47
2022-11-01T11:25:19.069Z,98953.38
2022-11-01T11:28:05.636Z,98947.47
2022-11-01T11:30:51.606Z,98953.38
2022-11-01T11:33:37.113Z,98954.91
2022-11-01T11:36:38.266Z,98960.47
2022-11-01T11:39:29.974Z,98957.28
2022-11-01T11:42:21.856Z,98971.91
2022-11-01T11:45:15.747Z,98962.81
2022-11-01T11:48:21.883Z,98966.38
2022-11-01T11:51:07.423Z,98967.94
2022-11-01T11:54:37.694Z,98973.44
2022-11-01T11:57:26.297Z,98972.66
2022-11-01T12:00:23.294Z,98975.06
2022-11-01T12:03:12.873Z,98985.38
2022-11-01T12:06:05.591Z,98986.16
2022-11-01T12:08:53.817Z,98988.91
2022-11-01T12:11:45.154Z,98983.38
2022-11-01T12:14:36.768Z,98984.16
2022-11-01T12:17:43.781Z,98985.38
2022-11-01T12:20:37.132Z,98986.16
2022-11-01T12:23:35.081Z,98984.53
2022-11-01T12:26:22.688Z,98988.06
2022-11-01T12:29:31.772Z,98987.69
2022-11-01T12:33:06.699Z,98984.94
2022-11-01T12:35:54.445Z,98990.84
2022-11-01T12:39:15.408Z,98988.47
2022-11-01T12:42:04.576Z,98999.16
2022-11-01T12:44:57.203Z,98989.28
2022-11-01T12:47:47.951Z,99000.75
2022-11-01T12:50:45.038Z,98991.22
2022-11-01T12:53:44.811Z,98995.56
2022-11-01T12:56:30.442Z,98992.34
2022-11-01T12:59:22.411Z,98998.59
2022-11-01T13:02:16.957Z,98993.81
2022-11-01T13:05:44.099Z,99003.28
2022-11-01T13:08:48.027Z,99012.75
2022-11-01T13:12:13.436Z,99015.03
2022-11-01T13:15:21.729Z,99020.91
2022-11-01T13:18:33.432Z,99022.03
2022-11-01T13:21:37.794Z,99029.09
2022-11-01T13:24:59.290Z,99036.59
2022-11-01T13:27:55.713Z,99039.28
2022-11-01T13:30:49.921Z,99041.66
2022-11-01T13:34:00.077Z,99042.38
2022-11-01T13:36:54.602Z,99043.06
2022-11-01T13:40:07.819Z,99052.50
2022-11-01T13:43:10.449Z,99057.22
2022-11-01T13:46:04.982Z,99061.91
2022-11-01T13:48:53.958Z,99055.50
2022-11-01T13:51:45.627Z,99062.16
2022-11-01T13:55:00.192Z,99057.00
2022-11-01T13:57:45.799Z,99054.56
2022-11-01T14:00:42.708Z,99061.63
2022-11-01T14:03:36.070Z,99057.59
2022-11-01T14:06:36.389Z,99052.75
2022-11-01T14:09:25.869Z,99054.38
2022-11-01T14:12:30.094Z,99055.94
2022-11-01T14:15:20.876Z,99059.06
2022-11-01T14:18:09.755Z,99055.81
2022-11-01T14:20:56.857Z,99057.31
2022-11-01T14:23:42.134Z,99061.56
2022-11-01T14:27:01.111Z,99061.88
2022-11-01T14:29:51.299Z,99069.06
2022-11-01T14:32:37.184Z,99070.63
2022-11-01T14:35:34.578Z,99067.44
2022-11-01T14:38:29.161Z,99068.22
2022-11-01T14:41:15.915Z,99076.53
2022-11-01T14:44:12.173Z,99076.13
2022-11-01T14:47:01.681Z,99074.13
2022-11-01T14:49:48.114Z,99072.56
2022-11-01T14:52:45.826Z,99059.97
2022-11-01T14:55:37.032Z,99068.31
2022-11-01T14:58:24.178Z,99063.94
2022-11-01T15:01:17.825Z,99063.53
2022-11-01T15:04:03.377Z,99069.44
2022-11-01T15:06:49.641Z,99069.00
2022-11-01T15:09:35.321Z,99076.13
2022-11-01T15:12:21.001Z,99086.38
2022-11-01T15:15:07.491Z,99078.50
2022-11-01T15:17:54.981Z,99077.31
2022-11-01T15:21:00.975Z,99077.31
2022-11-01T15:23:48.616Z,99078.13
2022-11-01T15:26:34.390Z,99080.47
2022-11-01T15:29:25.004Z,99077.31
2022-11-01T15:32:31.047Z,99083.31
2022-11-01T15:35:26.475Z,99073.84
2022-11-01T15:38:20.637Z,99086.53
2022-11-01T15:41:27.518Z,99086.88
2022-11-01T15:44:23.334Z,99077.78
2022-11-01T15:47:22.048Z,99073.34
2022-11-01T15:50:07.603Z,99082.47
2022-11-01T15:52:53.606Z,99075.34
2022-11-01T15:55:44.860Z,99077.00
2022-11-01T15:58:37.949Z,99086.53
2022-11-01T16:01:25.352Z,99085.75
2022-11-01T16:04:14.587Z,99092.94
2022-11-01T16:07:05.023Z,99096.06
2022-11-01T16:10:00.324Z,99089.66
2022-11-01T16:12:47.092Z,99088.44
2022-11-01T16:15:33.948Z,99093.22
2022-11-01T16:18:24.228Z,99081.28
2022-11-01T16:21:19.171Z,99087.97
2022-11-01T16:24:21.478Z,99098.28
2022-11-01T16:27:08.732Z,99100.25
2022-11-01T16:29:54.291Z,99103.03
2022-11-01T16:32:39.501Z,99104.63
2022-11-01T16:35:34.120Z,99103.41
2022-11-01T16:38:28.936Z,99116.94
2022-11-01T16:41:24.540Z,99117.28
2022-11-01T16:44:16.042Z,99117.66
2022-11-01T16:47:01.599Z,99117.75
2022-11-01T16:49:52.458Z,99114.97
2022-11-01T16:52:38.228Z,99118.50
2022-11-01T16:55:27.198Z,99114.16
2022-11-01T16:58:21.995Z,99129.63
2022-11-01T17:01:23.699Z,99123.72
2022-11-01T17:04:11.463Z,99127.25
2022-11-01T17:06:58.756Z,99136.00
2022-11-01T17:09:44.424Z,99130.03
2022-11-01T17:12:30.161Z,99139.66
2022-11-01T17:15:15.647Z,99143.66
2022-11-01T17:18:08.587Z,99145.56
2022-11-01T17:20:55.099Z,99149.91
2022-11-01T17:23:40.659Z,99155.81
2022-11-01T17:26:26.569Z,99145.16
2022-11-01T17:29:16.812Z,99159.41
2022-11-01T17:32:04.124Z,99162.59
2022-11-01T17:34:50.382Z,99165.38
2022-11-01T17:37:36.808Z,99163.72
2022-11-01T17:40:27.014Z,99163.69
2022-11-01T17:43:18.849Z,99171.22
2022-11-01T17:46:13.635Z,99160.53
2022-11-01T17:48:59.113Z,99160.91
2022-11-01T17:51:44.668Z,99141.78
2022-11-01T17:54:30.294Z,99152.91
2022-11-01T17:57:15.609Z,99151.28
2022-11-01T18:00:01.410Z,99152.78
2022-11-01T18:02:47.130Z,99155.94
2022-11-01T18:05:32.949Z,99153.94
2022-11-01T18:08:22.222Z,99154.72
2022-11-01T18:11:15.362Z,99153.94
2022-11-01T18:14:26.935Z,99163.00
2022-11-01T18:17:50.310Z,99158.13
2022-11-01T18:20:46.171Z,99158.94
2022-11-01T18:23:32.878Z,99154.09
2022-11-01T18:26:22.978Z,99160.50
2022-11-01T18:29:23.515Z,99154.22
2022-11-01T18:32:19.650Z,99159.78
2022-11-01T18:35:30.555Z,99160.06
2022-11-01T18:38:36.564Z,99166.41
2022-11-01T18:41:22.468Z,99165.63
2022-11-01T18:44:12.628Z,99172.47
2022-11-01T18:47:04.851Z,99172.09
2022-11-01T18:49:50.849Z,99169.25
2022-11-01T18:52:36.027Z,99172.75
2022-11-01T18:55:21.337Z,99172.34
2022-11-01T18:58:21.016Z,99170.69
2022-11-01T19:01:32.606Z,99171.06
2022-11-01T19:04:31.578Z,99173.47
2022-11-01T19:07:22.856Z,99173.88
2022-11-01T19:10:21.247Z,99177.38
2022-11-01T19:13:13.295Z,99180.63
2022-11-01T19:16:02.521Z,99177.03
2022-11-01T19:18:49.830Z,99183.81
2022-11-01T19:21:35.919Z,99193.69
2022-11-01T19:24:24.369Z,99198.06
2022-11-01T19:27:20.462Z,99192.00
2022-11-01T19:30:21.100Z,99206.25
2022-11-01T19:33:12.753Z,99204.69
2022-11-01T19:35:59.478Z,99201.97
2022-11-01T19:38:47.980Z,99209.53
2022-11-01T19:41:34.695Z,99209.53
2022-11-01T19:44:25.337Z,99205.94
2022-11-01T19:47:28.868Z,99216.28
2022-11-01T19:50:16.832Z,99216.28
2022-11-01T19:53:02.005Z,99209.19
2022-11-01T19:55:55.069Z,99215.09
2022-11-01T19:58:51.861Z,99223.06
2022-11-01T20:01:40.861Z,99222.28
2022-11-01T20:04:29.167Z,99215.16
2022-11-01T20:07:20.360Z,99225.50
2022-11-01T20:10:06.623Z,99227.50
2022-11-01T20:12:52.103Z,99228.28
2022-11-01T20:15:37.255Z,99232.59
2022-11-01T20:18:22.679Z,99231.03
2022-11-01T20:21:08.124Z,99229.47
2022-11-01T20:23:54.444Z,99229.47
2022-11-01T20:26:40.231Z,99239.03
2022-11-01T20:29:25.737Z,99237.81
2022-11-01T20:32:11.025Z,99238.59
2022-11-01T20:34:56.439Z,99239.03
2022-11-01T20:37:42.988Z,99239.03
2022-11-01T20:40:28.439Z,99247.34
2022-11-01T20:43:13.543Z,99246.94
2022-11-01T20:45:58.846Z,99252.91
2022-11-01T20:48:45.399Z,99261.63
2022-11-01T20:51:30.977Z,99256.06
2022-11-01T20:54:18.054Z,99259.34
2022-11-01T20:57:03.500Z,99258.97
2022-11-01T20:59:51.071Z,99257.00
2022-11-01T21:02:36.987Z,99255.09
2022-11-01T21:05:29.490Z,99253.50
2022-11-01T21:08:23.993Z,99255.59
2022-11-01T21:11:24.447Z,99252.84
2022-11-01T21:14:20.566Z,99244.22
2022-11-01T21:17:16.988Z,99253.75
2022-11-01T21:20:10.983Z,99250.63
2022-11-01T21:23:01.606Z,99253.03
2022-11-01T21:25:52.643Z,99250.31
2022-11-01T21:28:50.643Z,99250.75
2022-11-01T21:31:39.034Z,99253.16
2022-11-01T21:34:27.816Z,99257.19
2022-11-01T21:37:13.122Z,99256.03
2022-11-01T21:40:05.178Z,99265.22
2022-11-01T21:42:51.912Z,99258.09
2022-11-01T21:45:37.274Z,99255.34
2022-11-01T21:48:28.192Z,99250.25
2022-11-01T21:51:13.748Z,99252.66
2022-11-01T21:54:03.270Z,99242.38
2022-11-01T21:56:50.136Z,99251.91
2022-11-01T21:59:36.406Z,99243.63
2022-11-01T22:02:21.790Z,99243.28
2022-11-01T22:05:07.494Z,99248.03
2022-11-01T22:07:52.908Z,99244.88
2022-11-01T22:10:38.371Z,99251.28
2022-11-01T22:13:23.644Z,99260.00
2022-11-01T22:16:09.497Z,99252.09
2022-11-01T22:18:54.830Z,99250.50
2022-11-01T22:21:40.339Z,99264.81
2022-11-01T22:24:25.759Z,99260.88
2022-11-01T22:27:11.291Z,99253.78
2022-11-01T22:29:56.464Z,99262.50
2022-11-01T22:32:42.597Z,99261.72
2022-11-01T22:35:27.971Z,99261.34
2022-11-01T22:38:22.697Z,99256.22
2022-11-01T22:41:17.166Z,99261.41
2022-11-01T22:44:10.599Z,99257.06
2022-11-01T22:46:59.338Z,99264.59
2022-11-01T22:49:52.893Z,99262.66
2022-11-01T22:52:43.693Z,99270.97
2022-11-01T22:55:30.995Z,99269.41
2022-11-01T22:58:32.869Z,99263.50
2022-11-01T23:01:27.675Z,99262.72
2022-11-01T23:04:21.516Z,99264.34
2022-11-01T23:07:24.006Z,99263.53
2022-11-01T23:10:27.881Z,99267.50
2022-11-01T23:13:38.806Z,99256.03
2022-11-01T23:16:36.143Z,99264.38
2022-11-01T23:19:21.617Z,99267.56
2022-11-01T23:22:19.991Z,99271.53
2022-11-01T23:25:07.165Z,99275.50
2022-11-01T23:27:54.277Z,99269.97
2022-11-01T23:30:41.851Z,99269.16
2022-11-01T23:33:40.006Z,99266.84
2022-11-01T23:36:35.419Z,99268.81
2022-11-01T23:39:21.507Z,99267.25
2022-11-01T23:42:14.538Z,99269.25
2022-11-01T23:44:59.970Z,99263.69
2022-11-01T23:47:45.241Z,99266.09
2022-11-01T23:50:34.335Z,99255.41
2022-11-01T23:53:22.424Z,99258.19
2022-11-01T23:56:09.163Z,99258.94
2022-11-01T23:59:00.272Z,99257.41
